sensor_id;sensor_type;location;lat;lon;timestamp;P1;durP1;ratioP1;P2;durP2;ratioP2
63880;SDS011;50046;46.672;11.152;2022-07-06T00:00:08;8.45;;;3.83;;
63880;SDS011;50046;46.672;11.152;2022-07-06T00:00:20;8.43;;;3.78;;
63880;SDS011;50046;46.672;11.152;2022-07-06T00:00:30;8.32;;;3.90;;
63880;SDS011;50046;46.672;11.152;2022-07-06T00:00:40;9.50;;;3.90;;
63880;SDS011;50046;46.672;11.152;2022-07-06T00:00:52;9.53;;;3.93;;
63880;SDS011;50046;46.672;11.152;2022-07-06T00:01:02;9.23;;;3.90;;
63880;SDS011;50046;46.672;11.152;2022-07-06T00:01:13;9.77;;;3.90;;
63880;SDS011;50046;46.672;11.152;2022-07-06T00:01:23;10.15;;;3.80;;
63880;SDS011;50046;46.672;11.152;2022-07-06T00:01:34;9.67;;;3.77;;
63880;SDS011;50046;46.672;11.152;2022-07-06T00:01:45;9.73;;;3.88;;
63880;SDS011;50046;46.672;11.152;2022-07-06T00:01:55;9.38;;;4.00;;
63880;SDS011;50046;46.672;11.152;2022-07-06T00:02:06;8.73;;;4.00;;
63880;SDS011;50046;46.672;11.152;2022-07-06T00:02:16;8.88;;;3.92;;
63880;SDS011;50046;46.672;11.152;2022-07-06T00:02:27;10.60;;;3.97;;
63880;SDS011;50046;46.672;11.152;2022-07-06T00:02:37;10.60;;;3.90;;
63880;SDS011;50046;46.672;11.152;2022-07-06T00:02:47;10.05;;;3.85;;
63880;SDS011;50046;46.672;11.152;2022-07-06T00:02:58;8.67;;;3.80;;
63880;SDS011;50046;46.672;11.152;2022-07-06T00:03:08;9.13;;;3.83;;
63880;SDS011;50046;46.672;11.152;2022-07-06T00:03:19;9.70;;;3.90;;
63880;SDS011;50046;46.672;11.152;2022-07-06T00:03:29;9.50;;;3.90;;
63880;SDS011;50046;46.672;11.152;2022-07-06T00:03:39;9.40;;;3.92;;
63880;SDS011;50046;46.672;11.152;2022-07-06T00:03:50;9.77;;;4.10;;
63880;SDS011;50046;46.672;11.152;2022-07-06T00:04:01;11.13;;;4.30;;
63880;SDS011;50046;46.672;11.152;2022-07-06T00:04:12;11.93;;;4.28;;
63880;SDS011;50046;46.672;11.152;2022-07-06T00:04:23;12.23;;;4.20;;
63880;SDS011;50046;46.672;11.152;2022-07-06T00:04:33;10.83;;;4.10;;
63880;SDS011;50046;46.672;11.152;2022-07-06T00:04:44;11.32;;;4.28;;
63880;SDS011;50046;46.672;11.152;2022-07-06T00:04:54;11.23;;;4.20;;
63880;SDS011;50046;46.672;11.152;2022-07-06T00:05:04;11.87;;;4.40;;
63880;SDS011;50046;46.672;11.152;2022-07-06T00:05:15;11.20;;;4.40;;
63880;SDS011;50046;46.672;11.152;2022-07-06T00:05:25;11.30;;;4.50;;
63880;SDS011;50046;46.672;11.152;2022-07-06T00:05:54;11.55;;;4.28;;
63880;SDS011;50046;46.672;11.152;2022-07-06T00:06:06;10.40;;;4.28;;
63880;SDS011;50046;46.672;11.152;2022-07-06T00:06:16;10.17;;;4.20;;
63880;SDS011;50046;46.672;11.152;2022-07-06T00:06:27;10.48;;;4.25;;
63880;SDS011;50046;46.672;11.152;2022-07-06T00:06:37;11.27;;;4.30;;
63880;SDS011;50046;46.672;11.152;2022-07-06T00:06:48;11.18;;;4.32;;
63880;SDS011;50046;46.672;11.152;2022-07-06T00:06:59;11.65;;;4.40;;
63880;SDS011;50046;46.672;11.152;2022-07-06T00:07:09;10.43;;;4.30;;
63880;SDS011;50046;46.672;11.152;2022-07-06T00:07:19;10.67;;;4.27;;
63880;SDS011;50046;46.672;11.152;2022-07-06T00:07:31;11.18;;;4.40;;
63880;SDS011;50046;46.672;11.152;2022-07-06T00:07:42;13.10;;;4.60;;
63880;SDS011;50046;46.672;11.152;2022-07-06T00:07:52;12.80;;;4.50;;
63880;SDS011;50046;46.672;11.152;2022-07-06T00:08:03;12.67;;;4.50;;
63880;SDS011;50046;46.672;11.152;2022-07-06T00:08:13;10.55;;;4.25;;
63880;SDS011;50046;46.672;11.152;2022-07-06T00:08:24;10.23;;;4.30;;
63880;SDS011;50046;46.672;11.152;2022-07-06T00:08:34;10.52;;;4.35;;
63880;SDS011;50046;46.672;11.152;2022-07-06T00:08:46;10.02;;;4.30;;
63880;SDS011;50046;46.672;11.152;2022-07-06T00:08:56;9.57;;;4.20;;
63880;SDS011;50046;46.672;11.152;2022-07-06T00:09:07;9.57;;;4.05;;
63880;SDS011;50046;46.672;11.152;2022-07-06T00:09:17;9.43;;;4.05;;
63880;SDS011;50046;46.672;11.152;2022-07-06T00:09:28;9.63;;;4.10;;
63880;SDS011;50046;46.672;11.152;2022-07-06T00:09:38;9.57;;;4.03;;
63880;SDS011;50046;46.672;11.152;2022-07-06T00:09:49;10.93;;;4.13;;
63880;SDS011;50046;46.672;11.152;2022-07-06T00:09:59;11.00;;;4.13;;
63880;SDS011;50046;46.672;11.152;2022-07-06T00:10:09;10.45;;;4.10;;
63880;SDS011;50046;46.672;11.152;2022-07-06T00:10:20;10.37;;;4.10;;
63880;SDS011;50046;46.672;11.152;2022-07-06T00:10:30;10.45;;;4.05;;
63880;SDS011;50046;46.672;11.152;2022-07-06T00:10:41;9.97;;;3.97;;
63880;SDS011;50046;46.672;11.152;2022-07-06T00:10:51;7.97;;;3.83;;
63880;SDS011;50046;46.672;11.152;2022-07-06T00:11:02;9.80;;;3.90;;
63880;SDS011;50046;46.672;11.152;2022-07-06T00:11:12;11.03;;;3.90;;
63880;SDS011;50046;46.672;11.152;2022-07-06T00:11:23;11.48;;;3.88;;
63880;SDS011;50046;46.672;11.152;2022-07-06T00:11:33;8.90;;;3.80;;
63880;SDS011;50046;46.672;11.152;2022-07-06T00:11:44;8.88;;;3.88;;
63880;SDS011;50046;46.672;11.152;2022-07-06T00:11:54;9.23;;;4.00;;
63880;SDS011;50046;46.672;11.152;2022-07-06T00:12:05;8.63;;;3.90;;
63880;SDS011;50046;46.672;11.152;2022-07-06T00:12:15;7.63;;;3.77;;
63880;SDS011;50046;46.672;11.152;2022-07-06T00:12:26;8.55;;;3.83;;
63880;SDS011;50046;46.672;11.152;2022-07-06T00:12:36;8.30;;;3.77;;
63880;SDS011;50046;46.672;11.152;2022-07-06T00:12:47;9.40;;;3.80;;
63880;SDS011;50046;46.672;11.152;2022-07-06T00:12:57;9.13;;;3.83;;
63880;SDS011;50046;46.672;11.152;2022-07-06T00:13:07;9.77;;;3.90;;
63880;SDS011;50046;46.672;11.152;2022-07-06T00:13:18;9.35;;;3.95;;
63880;SDS011;50046;46.672;11.152;2022-07-06T00:13:28;9.47;;;3.90;;
63880;SDS011;50046;46.672;11.152;2022-07-06T00:13:39;9.45;;;4.10;;
63880;SDS011;50046;46.672;11.152;2022-07-06T00:13:49;8.90;;;4.00;;
63880;SDS011;50046;46.672;11.152;2022-07-06T00:14:01;8.90;;;3.97;;
63880;SDS011;50046;46.672;11.152;2022-07-06T00:14:11;9.83;;;4.00;;
63880;SDS011;50046;46.672;11.152;2022-07-06T00:14:22;9.23;;;3.90;;
63880;SDS011;50046;46.672;11.152;2022-07-06T00:14:32;8.68;;;3.90;;
63880;SDS011;50046;46.672;11.152;2022-07-06T00:14:43;8.17;;;3.93;;
63880;SDS011;50046;46.672;11.152;2022-07-06T00:14:53;9.30;;;4.00;;
63880;SDS011;50046;46.672;11.152;2022-07-06T00:15:04;8.63;;;3.93;;
63880;SDS011;50046;46.672;11.152;2022-07-06T00:15:14;8.30;;;3.90;;
63880;SDS011;50046;46.672;11.152;2022-07-06T00:15:25;8.17;;;4.00;;
63880;SDS011;50046;46.672;11.152;2022-07-06T00:15:36;9.30;;;4.20;;
63880;SDS011;50046;46.672;11.152;2022-07-06T00:15:46;9.18;;;4.10;;
63880;SDS011;50046;46.672;11.152;2022-07-06T00:15:56;8.70;;;4.00;;
63880;SDS011;50046;46.672;11.152;2022-07-06T00:16:07;8.73;;;4.00;;
63880;SDS011;50046;46.672;11.152;2022-07-06T00:16:17;9.50;;;4.10;;
63880;SDS011;50046;46.672;11.152;2022-07-06T00:16:29;9.55;;;4.03;;
63880;SDS011;50046;46.672;11.152;2022-07-06T00:16:39;8.93;;;3.90;;
63880;SDS011;50046;46.672;11.152;2022-07-06T00:16:50;9.13;;;3.90;;
63880;SDS011;50046;46.672;11.152;2022-07-06T00:17:00;9.90;;;4.00;;
63880;SDS011;50046;46.672;11.152;2022-07-06T00:17:11;10.27;;;4.00;;
63880;SDS011;50046;46.672;11.152;2022-07-06T00:17:21;10.10;;;4.00;;
63880;SDS011;50046;46.672;11.152;2022-07-06T00:17:32;11.27;;;3.97;;
63880;SDS011;50046;46.672;11.152;2022-07-06T00:17:42;10.30;;;4.00;;
63880;SDS011;50046;46.672;11.152;2022-07-06T00:17:52;9.95;;;3.90;;
63880;SDS011;50046;46.672;11.152;2022-07-06T00:18:03;8.73;;;3.83;;
63880;SDS011;50046;46.672;11.152;2022-07-06T00:18:13;9.20;;;3.70;;
63880;SDS011;50046;46.672;11.152;2022-07-06T00:18:24;9.67;;;3.73;;
63880;SDS011;50046;46.672;11.152;2022-07-06T00:18:34;9.33;;;3.87;;
63880;SDS011;50046;46.672;11.152;2022-07-06T00:18:45;8.48;;;3.90;;
63880;SDS011;50046;46.672;11.152;2022-07-06T00:18:55;7.53;;;3.80;;
63880;SDS011;50046;46.672;11.152;2022-07-06T00:19:06;8.13;;;3.87;;
63880;SDS011;50046;46.672;11.152;2022-07-06T00:19:16;9.33;;;3.90;;
63880;SDS011;50046;46.672;11.152;2022-07-06T00:19:27;10.38;;;4.00;;
63880;SDS011;50046;46.672;11.152;2022-07-06T00:19:37;10.47;;;4.00;;
63880;SDS011;50046;46.672;11.152;2022-07-06T00:19:47;9.32;;;3.95;;
63880;SDS011;50046;46.672;11.152;2022-07-06T00:19:58;8.30;;;3.90;;
63880;SDS011;50046;46.672;11.152;2022-07-06T00:20:08;7.77;;;3.73;;
63880;SDS011;50046;46.672;11.152;2022-07-06T00:20:19;9.10;;;3.70;;
63880;SDS011;50046;46.672;11.152;2022-07-06T00:20:29;9.03;;;3.60;;
63880;SDS011;50046;46.672;11.152;2022-07-06T00:20:40;8.15;;;3.65;;
63880;SDS011;50046;46.672;11.152;2022-07-06T00:20:50;6.73;;;3.50;;
63880;SDS011;50046;46.672;11.152;2022-07-06T00:21:04;8.20;;;3.53;;
63880;SDS011;50046;46.672;11.152;2022-07-06T00:21:14;8.40;;;3.60;;
63880;SDS011;50046;46.672;11.152;2022-07-06T00:21:24;6.83;;;3.47;;
63880;SDS011;50046;46.672;11.152;2022-07-06T00:21:35;6.00;;;3.40;;
63880;SDS011;50046;46.672;11.152;2022-07-06T00:21:45;6.63;;;3.33;;
63880;SDS011;50046;46.672;11.152;2022-07-06T00:21:56;7.90;;;3.50;;
63880;SDS011;50046;46.672;11.152;2022-07-06T00:22:06;8.23;;;3.60;;
63880;SDS011;50046;46.672;11.152;2022-07-06T00:22:17;8.27;;;3.50;;
63880;SDS011;50046;46.672;11.152;2022-07-06T00:22:27;7.97;;;3.50;;
63880;SDS011;50046;46.672;11.152;2022-07-06T00:22:37;7.43;;;3.40;;
63880;SDS011;50046;46.672;11.152;2022-07-06T00:22:48;6.37;;;3.47;;
63880;SDS011;50046;46.672;11.152;2022-07-06T00:22:58;6.22;;;3.45;;
63880;SDS011;50046;46.672;11.152;2022-07-06T00:23:09;6.90;;;3.53;;
63880;SDS011;50046;46.672;11.152;2022-07-06T00:23:19;7.70;;;3.60;;
63880;SDS011;50046;46.672;11.152;2022-07-06T00:23:30;8.45;;;3.63;;
63880;SDS011;50046;46.672;11.152;2022-07-06T00:23:41;7.97;;;3.57;;
63880;SDS011;50046;46.672;11.152;2022-07-06T00:23:51;7.90;;;3.63;;
63880;SDS011;50046;46.672;11.152;2022-07-06T00:24:02;7.47;;;3.60;;
63880;SDS011;50046;46.672;11.152;2022-07-06T00:24:13;7.57;;;3.65;;
63880;SDS011;50046;46.672;11.152;2022-07-06T00:24:23;7.57;;;3.67;;
63880;SDS011;50046;46.672;11.152;2022-07-06T00:24:33;8.47;;;3.70;;
63880;SDS011;50046;46.672;11.152;2022-07-06T00:24:44;9.10;;;3.67;;
63880;SDS011;50046;46.672;11.152;2022-07-06T00:24:54;9.60;;;3.63;;
63880;SDS011;50046;46.672;11.152;2022-07-06T00:25:05;8.93;;;3.60;;
63880;SDS011;50046;46.672;11.152;2022-07-06T00:25:15;8.68;;;3.58;;
63880;SDS011;50046;46.672;11.152;2022-07-06T00:25:26;8.03;;;3.60;;
63880;SDS011;50046;46.672;11.152;2022-07-06T00:25:37;7.72;;;3.70;;
63880;SDS011;50046;46.672;11.152;2022-07-06T00:25:47;8.02;;;3.75;;
63880;SDS011;50046;46.672;11.152;2022-07-06T00:25:58;7.90;;;3.70;;
63880;SDS011;50046;46.672;11.152;2022-07-06T00:26:09;8.57;;;3.63;;
63880;SDS011;50046;46.672;11.152;2022-07-06T00:26:19;9.07;;;3.67;;
63880;SDS011;50046;46.672;11.152;2022-07-06T00:26:30;8.68;;;3.63;;
63880;SDS011;50046;46.672;11.152;2022-07-06T00:26:40;7.10;;;3.50;;
63880;SDS011;50046;46.672;11.152;2022-07-06T00:26:50;7.45;;;3.60;;
63880;SDS011;50046;46.672;11.152;2022-07-06T00:27:01;7.70;;;3.60;;
63880;SDS011;50046;46.672;11.152;2022-07-06T00:27:11;8.02;;;3.60;;
63880;SDS011;50046;46.672;11.152;2022-07-06T00:27:22;7.70;;;3.60;;
63880;SDS011;50046;46.672;11.152;2022-07-06T00:27:32;7.03;;;3.60;;
63880;SDS011;50046;46.672;11.152;2022-07-06T00:27:43;7.13;;;3.60;;
63880;SDS011;50046;46.672;11.152;2022-07-06T00:27:53;7.50;;;3.53;;
63880;SDS011;50046;46.672;11.152;2022-07-06T00:28:03;7.57;;;3.60;;
63880;SDS011;50046;46.672;11.152;2022-07-06T00:28:14;7.97;;;3.60;;
63880;SDS011;50046;46.672;11.152;2022-07-06T00:28:25;7.68;;;3.50;;
63880;SDS011;50046;46.672;11.152;2022-07-06T00:28:36;7.68;;;3.40;;
63880;SDS011;50046;46.672;11.152;2022-07-06T00:28:46;7.60;;;3.40;;
63880;SDS011;50046;46.672;11.152;2022-07-06T00:28:57;7.85;;;3.40;;
63880;SDS011;50046;46.672;11.152;2022-07-06T00:29:07;6.50;;;3.30;;
63880;SDS011;50046;46.672;11.152;2022-07-06T00:29:17;5.87;;;3.30;;
63880;SDS011;50046;46.672;11.152;2022-07-06T00:29:28;5.10;;;3.30;;
63880;SDS011;50046;46.672;11.152;2022-07-06T00:29:40;6.32;;;3.35;;
63880;SDS011;50046;46.672;11.152;2022-07-06T00:29:53;7.63;;;3.40;;
63880;SDS011;50046;46.672;11.152;2022-07-06T00:30:06;8.00;;;3.40;;
63880;SDS011;50046;46.672;11.152;2022-07-06T00:30:46;7.95;;;3.67;;
63880;SDS011;50046;46.672;11.152;2022-07-06T00:30:56;8.60;;;3.70;;
63880;SDS011;50046;46.672;11.152;2022-07-06T00:31:07;8.70;;;3.60;;
63880;SDS011;50046;46.672;11.152;2022-07-06T00:31:17;8.35;;;3.53;;
63880;SDS011;50046;46.672;11.152;2022-07-06T00:31:27;9.37;;;3.70;;
63880;SDS011;50046;46.672;11.152;2022-07-06T00:31:38;8.37;;;3.77;;
63880;SDS011;50046;46.672;11.152;2022-07-06T00:31:48;7.72;;;3.70;;
63880;SDS011;50046;46.672;11.152;2022-07-06T00:31:59;7.13;;;3.60;;
63880;SDS011;50046;46.672;11.152;2022-07-06T00:32:10;7.18;;;3.50;;
63880;SDS011;50046;46.672;11.152;2022-07-06T00:32:21;7.82;;;3.50;;
63880;SDS011;50046;46.672;11.152;2022-07-06T00:32:32;7.13;;;3.50;;
63880;SDS011;50046;46.672;11.152;2022-07-06T00:32:42;7.17;;;3.60;;
63880;SDS011;50046;46.672;11.152;2022-07-06T00:32:52;6.75;;;3.78;;
63880;SDS011;50046;46.672;11.152;2022-07-06T00:33:03;7.30;;;3.80;;
63880;SDS011;50046;46.672;11.152;2022-07-06T00:33:14;6.25;;;3.60;;
63880;SDS011;50046;46.672;11.152;2022-07-06T00:33:24;5.85;;;3.50;;
63880;SDS011;50046;46.672;11.152;2022-07-06T00:33:35;6.47;;;3.67;;
63880;SDS011;50046;46.672;11.152;2022-07-06T00:33:45;7.33;;;3.77;;
63880;SDS011;50046;46.672;11.152;2022-07-06T00:33:55;8.30;;;3.80;;
63880;SDS011;50046;46.672;11.152;2022-07-06T00:34:06;7.70;;;3.60;;
63880;SDS011;50046;46.672;11.152;2022-07-06T00:34:16;7.43;;;3.50;;
63880;SDS011;50046;46.672;11.152;2022-07-06T00:34:27;7.25;;;3.53;;
63880;SDS011;50046;46.672;11.152;2022-07-06T00:34:37;7.30;;;3.70;;
63880;SDS011;50046;46.672;11.152;2022-07-06T00:34:49;6.60;;;3.60;;
63880;SDS011;50046;46.672;11.152;2022-07-06T00:34:59;7.43;;;3.60;;
63880;SDS011;50046;46.672;11.152;2022-07-06T00:35:10;8.23;;;3.55;;
63880;SDS011;50046;46.672;11.152;2022-07-06T00:35:20;8.80;;;3.70;;
63880;SDS011;50046;46.672;11.152;2022-07-06T00:35:30;7.93;;;3.60;;
63880;SDS011;50046;46.672;11.152;2022-07-06T00:35:41;7.10;;;3.60;;
63880;SDS011;50046;46.672;11.152;2022-07-06T00:35:52;5.95;;;3.33;;
63880;SDS011;50046;46.672;11.152;2022-07-06T00:36:04;5.77;;;3.40;;
63880;SDS011;50046;46.672;11.152;2022-07-06T00:36:18;6.15;;;3.50;;
63880;SDS011;50046;46.672;11.152;2022-07-06T00:36:30;7.70;;;3.60;;
63880;SDS011;50046;46.672;11.152;2022-07-06T00:36:44;8.07;;;3.60;;
63880;SDS011;50046;46.672;11.152;2022-07-06T00:37:27;7.30;;;3.50;;
63880;SDS011;50046;46.672;11.152;2022-07-06T00:37:39;7.70;;;3.60;;
63880;SDS011;50046;46.672;11.152;2022-07-06T00:38:01;7.82;;;3.60;;
63880;SDS011;50046;46.672;11.152;2022-07-06T00:38:13;7.72;;;3.55;;
63880;SDS011;50046;46.672;11.152;2022-07-06T00:38:23;7.72;;;3.60;;
63880;SDS011;50046;46.672;11.152;2022-07-06T00:38:33;7.60;;;3.77;;
63880;SDS011;50046;46.672;11.152;2022-07-06T00:38:44;7.67;;;3.80;;
63880;SDS011;50046;46.672;11.152;2022-07-06T00:38:54;6.93;;;3.60;;
63880;SDS011;50046;46.672;11.152;2022-07-06T00:39:05;6.50;;;3.40;;
63880;SDS011;50046;46.672;11.152;2022-07-06T00:39:15;5.68;;;3.30;;
63880;SDS011;50046;46.672;11.152;2022-07-06T00:39:27;7.00;;;3.47;;
63880;SDS011;50046;46.672;11.152;2022-07-06T00:39:39;6.93;;;3.47;;
63880;SDS011;50046;46.672;11.152;2022-07-06T00:39:50;5.80;;;3.40;;
63880;SDS011;50046;46.672;11.152;2022-07-06T00:40:00;7.83;;;3.50;;
63880;SDS011;50046;46.672;11.152;2022-07-06T00:40:10;7.90;;;3.60;;
63880;SDS011;50046;46.672;11.152;2022-07-06T00:40:21;8.40;;;3.70;;
63880;SDS011;50046;46.672;11.152;2022-07-06T00:40:32;6.60;;;3.60;;
63880;SDS011;50046;46.672;11.152;2022-07-06T00:40:42;6.28;;;3.47;;
63880;SDS011;50046;46.672;11.152;2022-07-06T00:40:53;7.13;;;3.40;;
63880;SDS011;50046;46.672;11.152;2022-07-06T00:41:03;7.07;;;3.40;;
63880;SDS011;50046;46.672;11.152;2022-07-06T00:41:14;7.38;;;3.40;;
63880;SDS011;50046;46.672;11.152;2022-07-06T00:41:24;6.40;;;3.33;;
63880;SDS011;50046;46.672;11.152;2022-07-06T00:41:34;6.65;;;3.40;;
63880;SDS011;50046;46.672;11.152;2022-07-06T00:41:45;8.30;;;3.60;;
63880;SDS011;50046;46.672;11.152;2022-07-06T00:41:56;9.40;;;3.70;;
63880;SDS011;50046;46.672;11.152;2022-07-06T00:42:06;10.30;;;3.70;;
63880;SDS011;50046;46.672;11.152;2022-07-06T00:42:17;8.63;;;3.60;;
63880;SDS011;50046;46.672;11.152;2022-07-06T00:42:27;6.90;;;3.50;;
63880;SDS011;50046;46.672;11.152;2022-07-06T00:42:39;6.93;;;3.60;;
63880;SDS011;50046;46.672;11.152;2022-07-06T00:42:56;7.65;;;3.40;;
63880;SDS011;50046;46.672;11.152;2022-07-06T00:43:07;6.63;;;3.30;;
63880;SDS011;50046;46.672;11.152;2022-07-06T00:43:17;6.93;;;3.40;;
63880;SDS011;50046;46.672;11.152;2022-07-06T00:43:28;6.25;;;3.50;;
63880;SDS011;50046;46.672;11.152;2022-07-06T00:43:48;6.37;;;3.40;;
63880;SDS011;50046;46.672;11.152;2022-07-06T00:44:06;6.00;;;3.47;;
63880;SDS011;50046;46.672;11.152;2022-07-06T00:44:19;6.82;;;3.50;;
63880;SDS011;50046;46.672;11.152;2022-07-06T00:44:29;6.43;;;3.50;;
63880;SDS011;50046;46.672;11.152;2022-07-06T00:44:42;7.15;;;3.65;;
63880;SDS011;50046;46.672;11.152;2022-07-06T00:44:52;8.43;;;3.60;;
63880;SDS011;50046;46.672;11.152;2022-07-06T00:45:03;10.23;;;3.53;;
63880;SDS011;50046;46.672;11.152;2022-07-06T00:45:14;9.40;;;3.40;;
63880;SDS011;50046;46.672;11.152;2022-07-06T00:45:26;7.88;;;3.50;;
63880;SDS011;50046;46.672;11.152;2022-07-06T00:45:36;5.77;;;3.50;;
63880;SDS011;50046;46.672;11.152;2022-07-06T00:45:47;5.97;;;3.58;;
63880;SDS011;50046;46.672;11.152;2022-07-06T00:45:57;6.07;;;3.50;;
63880;SDS011;50046;46.672;11.152;2022-07-06T00:46:09;7.43;;;3.50;;
63880;SDS011;50046;46.672;11.152;2022-07-06T00:46:19;7.55;;;3.40;;
63880;SDS011;50046;46.672;11.152;2022-07-06T00:46:36;7.65;;;3.45;;
63880;SDS011;50046;46.672;11.152;2022-07-06T00:46:47;7.87;;;3.43;;
63880;SDS011;50046;46.672;11.152;2022-07-06T00:46:57;7.55;;;3.60;;
63880;SDS011;50046;46.672;11.152;2022-07-06T00:47:08;6.57;;;3.60;;
63880;SDS011;50046;46.672;11.152;2022-07-06T00:47:18;5.80;;;3.50;;
63880;SDS011;50046;46.672;11.152;2022-07-06T00:47:28;5.40;;;3.30;;
63880;SDS011;50046;46.672;11.152;2022-07-06T00:47:39;5.40;;;3.30;;
63880;SDS011;50046;46.672;11.152;2022-07-06T00:47:51;5.30;;;3.20;;
63880;SDS011;50046;46.672;11.152;2022-07-06T00:48:01;5.77;;;3.30;;
63880;SDS011;50046;46.672;11.152;2022-07-06T00:48:12;5.68;;;3.28;;
63880;SDS011;50046;46.672;11.152;2022-07-06T00:48:22;7.57;;;3.30;;
63880;SDS011;50046;46.672;11.152;2022-07-06T00:48:33;7.83;;;3.30;;
63880;SDS011;50046;46.672;11.152;2022-07-06T00:48:43;7.68;;;3.30;;
63880;SDS011;50046;46.672;11.152;2022-07-06T00:48:54;6.90;;;3.50;;
63880;SDS011;50046;46.672;11.152;2022-07-06T00:49:04;7.57;;;3.60;;
63880;SDS011;50046;46.672;11.152;2022-07-06T00:49:15;7.38;;;3.65;;
63880;SDS011;50046;46.672;11.152;2022-07-06T00:49:46;7.30;;;3.38;;
63880;SDS011;50046;46.672;11.152;2022-07-06T00:50:16;7.10;;;3.42;;
63880;SDS011;50046;46.672;11.152;2022-07-06T00:50:30;9.10;;;3.50;;
63880;SDS011;50046;46.672;11.152;2022-07-06T00:50:41;8.05;;;3.58;;
63880;SDS011;50046;46.672;11.152;2022-07-06T00:50:51;7.40;;;3.47;;
63880;SDS011;50046;46.672;11.152;2022-07-06T00:51:02;6.17;;;3.40;;
63880;SDS011;50046;46.672;11.152;2022-07-06T00:51:13;6.80;;;3.40;;
63880;SDS011;50046;46.672;11.152;2022-07-06T00:51:25;6.40;;;3.50;;
63880;SDS011;50046;46.672;11.152;2022-07-06T00:51:39;8.07;;;3.42;;
63880;SDS011;50046;46.672;11.152;2022-07-06T00:51:50;8.65;;;3.53;;
63880;SDS011;50046;46.672;11.152;2022-07-06T00:52:00;8.83;;;3.70;;
63880;SDS011;50046;46.672;11.152;2022-07-06T00:52:11;8.77;;;3.80;;
63880;SDS011;50046;46.672;11.152;2022-07-06T00:52:22;9.55;;;3.67;;
63880;SDS011;50046;46.672;11.152;2022-07-06T00:52:34;7.73;;;3.50;;
63880;SDS011;50046;46.672;11.152;2022-07-06T00:52:45;6.65;;;3.40;;
63880;SDS011;50046;46.672;11.152;2022-07-06T00:53:01;6.93;;;3.50;;
63880;SDS011;50046;46.672;11.152;2022-07-06T00:53:15;7.05;;;3.50;;
63880;SDS011;50046;46.672;11.152;2022-07-06T00:53:26;6.87;;;3.60;;
63880;SDS011;50046;46.672;11.152;2022-07-06T00:53:36;7.68;;;3.75;;
63880;SDS011;50046;46.672;11.152;2022-07-06T00:53:47;8.13;;;3.67;;
63880;SDS011;50046;46.672;11.152;2022-07-06T00:53:58;10.20;;;3.63;;
63880;SDS011;50046;46.672;11.152;2022-07-06T00:54:12;9.45;;;3.42;;
63880;SDS011;50046;46.672;11.152;2022-07-06T00:54:23;7.63;;;3.38;;
63880;SDS011;50046;46.672;11.152;2022-07-06T00:54:34;5.43;;;3.30;;
63880;SDS011;50046;46.672;11.152;2022-07-06T00:54:46;6.60;;;3.50;;
63880;SDS011;50046;46.672;11.152;2022-07-06T00:54:57;6.50;;;3.50;;
63880;SDS011;50046;46.672;11.152;2022-07-06T00:55:08;6.60;;;3.40;;
63880;SDS011;50046;46.672;11.152;2022-07-06T00:55:24;7.10;;;3.58;;
63880;SDS011;50046;46.672;11.152;2022-07-06T00:55:37;8.77;;;3.70;;
63880;SDS011;50046;46.672;11.152;2022-07-06T00:55:51;8.38;;;3.60;;
63880;SDS011;50046;46.672;11.152;2022-07-06T00:56:02;8.50;;;3.60;;
63880;SDS011;50046;46.672;11.152;2022-07-06T00:56:12;7.43;;;3.55;;
63880;SDS011;50046;46.672;11.152;2022-07-06T00:56:23;8.45;;;3.65;;
63880;SDS011;50046;46.672;11.152;2022-07-06T00:56:36;7.50;;;3.63;;
63880;SDS011;50046;46.672;11.152;2022-07-06T00:56:46;7.05;;;3.50;;
63880;SDS011;50046;46.672;11.152;2022-07-06T00:56:57;7.53;;;3.40;;
63880;SDS011;50046;46.672;11.152;2022-07-06T00:57:08;8.80;;;3.38;;
63880;SDS011;50046;46.672;11.152;2022-07-06T00:57:19;8.38;;;3.50;;
63880;SDS011;50046;46.672;11.152;2022-07-06T00:57:30;7.97;;;3.50;;
63880;SDS011;50046;46.672;11.152;2022-07-06T00:57:42;6.63;;;3.50;;
63880;SDS011;50046;46.672;11.152;2022-07-06T00:57:53;7.47;;;3.40;;
63880;SDS011;50046;46.672;11.152;2022-07-06T00:58:05;7.28;;;3.50;;
63880;SDS011;50046;46.672;11.152;2022-07-06T00:58:16;7.15;;;3.50;;
63880;SDS011;50046;46.672;11.152;2022-07-06T00:58:27;6.88;;;3.60;;
63880;SDS011;50046;46.672;11.152;2022-07-06T00:58:37;6.60;;;3.60;;
63880;SDS011;50046;46.672;11.152;2022-07-06T00:58:48;6.75;;;3.65;;
63880;SDS011;50046;46.672;11.152;2022-07-06T00:58:59;6.63;;;3.60;;
63880;SDS011;50046;46.672;11.152;2022-07-06T00:59:10;5.65;;;3.40;;
63880;SDS011;50046;46.672;11.152;2022-07-06T00:59:20;5.30;;;3.30;;
63880;SDS011;50046;46.672;11.152;2022-07-06T00:59:32;6.20;;;3.45;;
63880;SDS011;50046;46.672;11.152;2022-07-06T00:59:42;7.67;;;3.67;;
63880;SDS011;50046;46.672;11.152;2022-07-06T00:59:53;7.78;;;3.63;;
63880;SDS011;50046;46.672;11.152;2022-07-06T01:00:04;7.72;;;3.60;;
63880;SDS011;50046;46.672;11.152;2022-07-06T01:00:18;6.97;;;3.60;;
63880;SDS011;50046;46.672;11.152;2022-07-06T01:00:30;6.75;;;3.60;;
63880;SDS011;50046;46.672;11.152;2022-07-06T01:00:40;6.72;;;3.60;;
63880;SDS011;50046;46.672;11.152;2022-07-06T01:00:54;8.13;;;3.65;;
63880;SDS011;50046;46.672;11.152;2022-07-06T01:01:05;7.87;;;3.60;;
63880;SDS011;50046;46.672;11.152;2022-07-06T01:01:15;7.38;;;3.42;;
63880;SDS011;50046;46.672;11.152;2022-07-06T01:01:25;7.40;;;3.50;;
63880;SDS011;50046;46.672;11.152;2022-07-06T01:01:36;7.28;;;3.60;;
63880;SDS011;50046;46.672;11.152;2022-07-06T01:01:46;6.80;;;3.57;;
63880;SDS011;50046;46.672;11.152;2022-07-06T01:01:57;6.10;;;3.50;;
63880;SDS011;50046;46.672;11.152;2022-07-06T01:02:08;5.97;;;3.40;;
63880;SDS011;50046;46.672;11.152;2022-07-06T01:02:18;6.38;;;3.40;;
63880;SDS011;50046;46.672;11.152;2022-07-06T01:02:31;6.22;;;3.40;;
63880;SDS011;50046;46.672;11.152;2022-07-06T01:02:42;6.40;;;3.40;;
63880;SDS011;50046;46.672;11.152;2022-07-06T01:02:53;7.10;;;3.50;;
63880;SDS011;50046;46.672;11.152;2022-07-06T01:03:04;7.03;;;3.50;;
63880;SDS011;50046;46.672;11.152;2022-07-06T01:03:15;6.33;;;3.50;;
63880;SDS011;50046;46.672;11.152;2022-07-06T01:03:25;5.53;;;3.50;;
63880;SDS011;50046;46.672;11.152;2022-07-06T01:03:36;5.80;;;3.50;;
63880;SDS011;50046;46.672;11.152;2022-07-06T01:03:47;5.72;;;3.47;;
63880;SDS011;50046;46.672;11.152;2022-07-06T01:03:57;7.07;;;3.40;;
63880;SDS011;50046;46.672;11.152;2022-07-06T01:04:07;7.22;;;3.40;;
63880;SDS011;50046;46.672;11.152;2022-07-06T01:04:18;8.03;;;3.50;;
63880;SDS011;50046;46.672;11.152;2022-07-06T01:04:28;8.00;;;3.60;;
63880;SDS011;50046;46.672;11.152;2022-07-06T01:04:39;9.70;;;3.70;;
63880;SDS011;50046;46.672;11.152;2022-07-06T01:04:49;8.43;;;3.57;;
63880;SDS011;50046;46.672;11.152;2022-07-06T01:05:00;7.90;;;3.30;;
63880;SDS011;50046;46.672;11.152;2022-07-06T01:05:12;7.22;;;3.30;;
63880;SDS011;50046;46.672;11.152;2022-07-06T01:05:23;8.32;;;3.50;;
63880;SDS011;50046;46.672;11.152;2022-07-06T01:05:34;6.68;;;3.50;;
63880;SDS011;50046;46.672;11.152;2022-07-06T01:05:46;6.40;;;3.40;;
63880;SDS011;50046;46.672;11.152;2022-07-06T01:05:57;6.95;;;3.47;;
63880;SDS011;50046;46.672;11.152;2022-07-06T01:06:07;8.07;;;3.60;;
63880;SDS011;50046;46.672;11.152;2022-07-06T01:06:19;8.82;;;3.78;;
63880;SDS011;50046;46.672;11.152;2022-07-06T01:06:29;8.33;;;3.70;;
63880;SDS011;50046;46.672;11.152;2022-07-06T01:06:39;7.43;;;3.60;;
63880;SDS011;50046;46.672;11.152;2022-07-06T01:06:50;6.65;;;3.60;;